Time;durP1;ratioP1;P1;durP2;ratioP2;P2;SDS_P1;SDS_P2;PMS_P1;PMS_P2;Temp;Humidity;BMP_temperature;BMP_pressure;BME280_temperature;BME280_humidity;BME280_pressure;Samples;Min_cycle;Max_cycle;Signal;HPM_P1;HPM_P2
2020/12/15 00:02:11;;;;;;;170.43;69.60;;;;;;;-1.24;100.00;99824.42;1763649;80;20218;-73
2020/12/15 00:04:41;;;;;;;140.80;58.65;;;;;;;-1.24;100.00;99819.16;1745572;80;21228;-73
2020/12/15 00:07:16;;;;;;;155.25;66.15;;;;;;;-1.23;100.00;99818.66;1767598;80;21079;-73
2020/12/15 00:09:44;;;;;;;109.15;46.95;;;;;;;-1.24;100.00;99814.39;1775767;80;21043;-73
2020/12/15 00:12:13;;;;;;;132.07;56.83;;;;;;;-1.24;100.00;99819.66;1764528;80;21200;-73
2020/12/15 00:14:41;;;;;;;118.93;51.70;;;;;;;-1.25;100.00;99829.38;1764674;80;21190;-73
2020/12/15 00:17:09;;;;;;;148.97;68.85;;;;;;;-1.24;100.00;99823.61;1752543;80;21022;-73
2020/12/15 00:19:41;;;;;;;150.62;64.25;;;;;;;-1.24;100.00;99827.56;1772735;80;21499;-74
2020/12/15 00:22:12;;;;;;;131.87;59.00;;;;;;;-1.23;100.00;99822.10;1757261;80;20942;-73
2020/12/15 00:24:41;;;;;;;160.30;71.22;;;;;;;-1.24;100.00;99821.79;1738369;80;22659;-73
2020/12/15 00:27:10;;;;;;;150.93;68.62;;;;;;;-1.23;100.00;99820.78;1749581;80;21187;-73
2020/12/15 00:29:40;;;;;;;109.57;50.67;;;;;;;-1.24;100.00;99813.08;1760448;80;21073;-73
2020/12/15 00:32:11;;;;;;;93.05;42.65;;;;;;;-1.24;100.00;99814.39;1745117;80;21698;-73
2020/12/15 00:34:41;;;;;;;79.60;34.27;;;;;;;-1.25;100.00;99814.89;1760523;80;21063;-73
2020/12/15 00:37:09;;;;;;;118.25;51.73;;;;;;;-1.22;100.00;99821.63;1748944;80;21385;-73
2020/12/15 00:39:38;;;;;;;132.55;52.75;;;;;;;-1.24;100.00;99823.11;1762948;80;21079;-73
2020/12/15 00:42:07;;;;;;;119.28;53.87;;;;;;;-1.23;100.00;99818.16;1765338;80;21156;-73
2020/12/15 00:44:36;;;;;;;131.78;58.78;;;;;;;-1.24;100.00;99820.47;1746560;80;21852;-73
2020/12/15 00:47:04;;;;;;;113.03;51.08;;;;;;;-1.23;100.00;99822.10;1752116;79;21186;-73
2020/12/15 00:49:33;;;;;;;130.70;57.35;;;;;;;-1.22;100.00;99824.27;1760572;80;22107;-73
2020/12/15 00:52:01;;;;;;;;;;;;;;;-1.23;100.00;99818.16;1753795;79;21057;-73
2020/12/15 00:54:30;;;;;;;89.15;40.67;;;;;;;-1.21;100.00;99824.58;1756604;80;20214;-73
2020/12/15 00:56:58;;;;;;;;;;;;;;;-1.23;100.00;99814.20;1778130;80;21135;-73
2020/12/15 00:59:27;;;;;;;95.70;42.40;;;;;;;-1.22;100.00;99823.77;1763147;80;20221;-73
2020/12/15 01:02:03;;;;;;;78.20;36.45;;;;;;;-1.21;100.00;99820.13;1755579;80;21333;-73
2020/12/15 01:04:31;;;;;;;80.83;36.30;;;;;;;-1.20;100.00;99819.63;1764780;80;21060;-73
2020/12/15 01:06:59;;;;;;;;;;;;;;;-1.18;100.00;99820.28;1755361;80;21084;-73
2020/12/15 01:09:28;;;;;;;;;;;;;;;-1.19;100.00;99819.97;1754342;80;20226;-73
2020/12/15 01:11:56;;;;;;;74.80;30.88;;;;;;;-1.19;100.00;99814.20;1767744;80;20282;-73
2020/12/15 01:14:24;;;;;;;78.72;34.10;;;;;;;-1.19;100.00;99814.20;1765204;80;21479;-73
2020/12/15 01:16:55;;;;;;;61.73;28.90;;;;;;;-1.16;100.00;99819.11;1733035;80;20937;-73
2020/12/15 01:19:25;;;;;;;59.67;26.23;;;;;;;-1.14;100.00;99815.00;1766239;80;21075;-74
2020/12/15 01:21:53;;;;;;;70.50;31.02;;;;;;;-1.17;100.00;99817.98;1714469;81;21076;-73
2020/12/15 01:24:25;;;;;;;64.95;29.30;;;;;;;-1.17;100.00;99817.98;1768165;80;21520;-74
2020/12/15 01:29:20;;;;;;;59.58;28.05;;;;;;;-1.12;100.00;99815.16;1845827;77;23616;-73
2020/12/15 01:31:52;;;;;;;76.30;33.10;;;;;;;-1.15;100.00;99812.02;1823107;78;21013;-73
2020/12/15 01:34:26;;;;;;;69.80;29.05;;;;;;;-1.14;100.00;99818.95;1823188;78;22224;-72
2020/12/15 01:37:07;;;;;;;66.12;27.27;;;;;;;-1.15;100.00;99818.14;1812058;78;20932;-73
2020/12/15 01:39:36;;;;;;;77.35;31.00;;;;;;;-1.13;100.00;99815.31;1821357;78;21385;-73
2020/12/15 01:42:13;;;;;;;63.33;30.30;;;;;;;-1.13;100.00;99817.48;1821908;78;21566;-73
2020/12/15 01:44:42;;;;;;;64.05;27.73;;;;;;;-1.12;100.00;99815.66;1822810;78;21059;-73
2020/12/15 01:47:15;;;;;;;65.20;27.22;;;;;;;-1.12;100.00;99820.92;1823705;78;21444;-75
2020/12/15 01:49:48;;;;;;;66.50;28.05;;;;;;;-1.11;100.00;99819.92;1815216;78;21605;-75
2020/12/15 01:52:18;;;;;;;54.90;25.90;;;;;;;-1.13;100.00;99820.58;1822954;78;21012;-75
2020/12/15 01:54:51;;;;;;;57.53;26.87;;;;;;;-1.14;100.00;99817.64;1823012;78;20897;-75
2020/12/15 01:57:23;;;;;;;59.30;28.00;;;;;;;-1.14;100.00;99820.27;1822539;78;20916;-72
2020/12/15 02:00:05;;;;;;;66.40;28.27;;;;;;;-1.13;100.00;99825.85;1795611;78;22174;-74
2020/12/15 02:02:43;;;;;;;56.23;28.35;;;;;;;-1.12;100.00;99824.38;1823580;78;21003;-73
2020/12/15 02:05:15;;;;;;;57.23;26.85;;;;;;;-1.12;100.00;99819.11;1822781;78;21134;-74
2020/12/15 02:07:46;;;;;;;61.98;23.80;;;;;;;-1.14;100.00;99822.91;1823469;78;21134;-73
2020/12/15 02:10:15;;;;;;;57.65;24.23;;;;;;;-1.16;100.00;99827.52;1823545;78;20933;-74
2020/12/15 02:12:49;;;;;;;61.55;26.20;;;;;;;-1.17;100.00;99829.34;1805306;78;22077;-74
2020/12/15 02:15:20;;;;;;;57.93;24.92;;;;;;;-1.19;100.00;99826.05;1820633;78;21495;-74
2020/12/15 02:17:50;;;;;;;61.68;27.25;;;;;;;-1.17;100.00;99824.57;1822814;78;20930;-74
2020/12/15 02:20:47;;;;;;;68.28;30.23;;;;;;;-1.13;100.00;99819.27;1852203;77;22997;-72
2020/12/15 02:23:26;;;;;;;74.15;31.48;;;;;;;-1.17;100.00;99821.94;1819580;78;21039;-72
2020/12/15 02:25:58;;;;;;;73.17;30.60;;;;;;;-1.17;100.00;99812.72;1748724;82;21034;-72
2020/12/15 02:28:28;;;;;;;70.45;29.85;;;;;;;-1.15;100.00;99822.09;1819740;78;21007;-72
2020/12/15 02:31:00;;;;;;;71.90;33.70;;;;;;;-1.15;100.00;99823.88;1749917;82;21023;-73
2020/12/15 02:33:33;;;;;;;77.15;34.60;;;;;;;-1.15;100.00;99823.88;1814647;78;20908;-73
2020/12/15 02:36:02;;;;;;;70.35;31.12;;;;;;;-1.16;100.00;99823.06;1819309;78;21043;-73
2020/12/15 02:38:31;;;;;;;74.20;33.02;;;;;;;-1.17;100.00;99819.30;1819478;78;22261;-73
2020/12/15 02:41:00;;;;;;;69.45;29.80;;;;;;;-1.16;100.00;99820.94;1819938;78;21010;-73
2020/12/15 02:43:36;;;;;;;73.75;29.72;;;;;;;-1.16;100.00;99817.80;1749865;82;21035;-73
2020/12/15 02:46:05;;;;;;;66.72;28.38;;;;;;;-1.16;100.00;99818.30;1820255;78;20983;-73
2020/12/15 02:48:34;;;;;;;64.95;27.95;;;;;;;-1.17;100.00;99813.53;1819840;78;21034;-73
2020/12/15 02:51:02;;;;;;;68.72;30.23;;;;;;;-1.17;100.00;99821.44;1819973;78;21197;-73
2020/12/15 02:53:42;;;;;;;63.80;26.52;;;;;;;-1.16;100.00;99823.56;1777917;78;21072;-73
2020/12/15 02:56:25;;;;;;;64.32;28.83;;;;;;;-1.15;100.00;99822.56;1720560;82;20947;-73
2020/12/15 02:58:54;;;;;;;56.53;26.10;;;;;;;-1.15;100.00;99819.45;1819770;78;20916;-73
2020/12/15 03:01:25;;;;;;;79.05;32.38;;;;;;;-1.14;100.00;99823.72;1727184;82;20922;-73
2020/12/15 03:03:55;;;;;;;72.80;32.20;;;;;;;-1.13;100.00;99825.85;1787220;80;21560;-74
2020/12/15 03:06:31;;;;;;;66.15;29.12;;;;;;;-1.14;100.00;99826.35;1786471;80;21054;-74
2020/12/15 03:09:02;;;;;;;55.88;28.27;;;;;;;-1.13;100.00;99834.60;1751318;80;21074;-74
2020/12/15 03:11:31;;;;;;;;;;;;;;;-1.14;100.00;99828.98;1789922;80;21537;-74
2020/12/15 03:14:01;;;;;;;70.57;30.62;;;;;;;-1.13;100.00;99839.88;1786394;80;20243;-74
2020/12/15 03:16:35;;;;;;;68.15;30.97;;;;;;;-1.12;100.00;99848.09;1787470;80;21210;-73
2020/12/15 03:19:05;;;;;;;78.22;31.85;;;;;;;-1.11;100.00;99843.63;1787301;80;21477;-73
2020/12/15 03:21:35;;;;;;;70.32;30.25;;;;;;;-1.10;100.00;99845.30;1756829;80;20939;-73
2020/12/15 03:24:05;;;;;;;71.95;33.18;;;;;;;-1.11;100.00;99842.31;1787613;80;21516;-73
2020/12/15 03:26:34;;;;;;;73.75;29.92;;;;;;;-1.09;100.00;99841.66;1787656;80;20923;-72
2020/12/15 03:29:04;;;;;;;71.67;33.55;;;;;;;-1.11;100.00;99841.81;1786971;80;22163;-73
2020/12/15 03:31:34;;;;;;;74.03;32.70;;;;;;;-1.12;100.00;99848.09;1787026;80;20947;-73
2020/12/15 03:34:02;;;;;;;;;;;;;;;-1.12;100.00;99842.00;1789802;80;20943;-73
2020/12/15 03:36:31;;;;;;;60.73;25.88;;;;;;;-1.13;100.00;99841.66;1787018;80;20111;-73
2020/12/15 03:39:00;;;;;;;74.85;30.40;;;;;;;-1.13;100.00;99849.09;1786925;80;20951;-73
2020/12/15 03:41:35;;;;;;;70.00;32.75;;;;;;;-1.13;100.00;99850.88;1787022;80;21383;-74
2020/12/15 03:44:13;;;;;;;63.00;28.32;;;;;;;-1.07;100.00;99852.03;1852308;77;28862;-73
2020/12/15 03:46:46;;;;;;;76.40;31.85;;;;;;;-1.09;100.00;99852.19;1815981;78;21596;-73
2020/12/15 03:49:16;;;;;;;68.55;29.35;;;;;;;-1.09;100.00;99857.46;1819979;78;22131;-72
2020/12/15 03:51:47;;;;;;;63.08;26.55;;;;;;;-1.09;100.00;99859.59;1749004;82;21103;-72
2020/12/15 03:54:24;;;;;;;;;;;;;;;-1.07;100.00;99863.89;1821120;78;21046;-72
2020/12/15 03:57:11;;;;;;;60.58;26.77;;;;;;;-1.07;100.00;99866.52;1819869;78;20156;-73
2020/12/15 03:59:42;;;;;;;66.65;27.77;;;;;;;-1.09;100.00;99858.77;1815432;78;21054;-73
2020/12/15 04:02:10;;;;;;;78.78;31.17;;;;;;;-1.09;100.00;99865.36;1820022;78;21397;-73
2020/12/15 04:04:39;;;;;;;78.17;32.35;;;;;;;-1.11;100.00;99860.25;1819916;78;21030;-73
2020/12/15 04:07:08;;;;;;;60.17;26.05;;;;;;;-1.10;100.00;99872.45;1819826;78;21588;-73
2020/12/15 04:09:38;;;;;;;56.83;25.48;;;;;;;-1.09;100.00;99871.95;1749684;82;21043;-73
2020/12/15 04:12:08;;;;;;;67.17;28.30;;;;;;;-1.09;100.00;99874.08;1819889;78;21137;-73
2020/12/15 04:14:36;;;;;;;71.77;28.27;;;;;;;-1.09;100.00;99878.03;1750088;82;21256;-73
2020/12/15 04:17:08;;;;;;;72.67;29.02;;;;;;;-1.07;100.00;99882.33;1788870;78;21525;-73
2020/12/15 04:19:38;;;;;;;79.55;31.85;;;;;;;-1.07;100.00;99878.37;1749678;82;21003;-73
2020/12/15 04:22:09;;;;;;;64.40;27.98;;;;;;;-1.06;100.00;99878.69;1819479;78;21022;-73
2020/12/15 04:24:40;;;;;;;73.37;29.12;;;;;;;-1.06;100.00;99879.50;1748277;82;21003;-73
2020/12/15 04:27:12;;;;;;;68.15;27.65;;;;;;;-1.06;100.00;99885.27;1819512;78;21250;-73
2020/12/15 04:29:41;;;;;;;60.95;24.82;;;;;;;-1.07;100.00;99892.36;1819908;78;21482;-73
2020/12/15 04:32:24;;;;;;;66.10;27.73;;;;;;;-1.06;100.00;99887.91;1750054;82;20943;-73
2020/12/15 04:34:57;;;;;;;62.78;29.57;;;;;;;-1.06;100.00;99891.86;1818501;78;21620;-73
2020/12/15 04:37:27;;;;;;;68.25;30.90;;;;;;;-1.06;100.00;99895.31;1749969;81;21003;-73
2020/12/15 04:39:57;;;;;;;71.95;32.35;;;;;;;-1.05;100.00;99896.13;1819797;78;21213;-73
2020/12/15 04:42:27;;;;;;;86.50;33.20;;;;;;;-1.05;100.00;99896.97;1748598;82;21216;-73
2020/12/15 04:44:57;;;;;;;81.70;33.73;;;;;;;-1.05;100.00;99900.92;1731201;80;21015;-73
2020/12/15 04:47:38;;;;;;;67.65;31.77;;;;;;;-1.03;100.00;99905.50;1781085;80;21007;-73
2020/12/15 04:50:10;;;;;;;73.85;33.25;;;;;;;-1.04;100.00;99910.45;1781657;80;21022;-73
2020/12/15 04:52:58;;;;;;;68.05;29.10;;;;;;;-1.04;100.00;99908.33;1780222;80;22515;-73
2020/12/15 04:55:40;;;;;;;67.40;28.80;;;;;;;-1.02;100.00;99906.35;1852113;77;22721;-72
2020/12/15 04:58:10;;;;;;;61.00;25.85;;;;;;;-1.07;100.00;99906.04;1789475;78;20923;-72
2020/12/15 05:00:39;;;;;;;67.45;30.82;;;;;;;-1.09;100.00;99909.65;1819851;78;21190;-72
2020/12/15 05:03:21;;;;;;;58.30;26.95;;;;;;;-1.08;100.00;99919.69;1747968;82;20919;-73
2020/12/15 05:05:51;;;;;;;63.63;26.25;;;;;;;-1.10;100.00;99922.50;1819830;78;20916;-73
2020/12/15 05:08:21;;;;;;;70.32;30.37;;;;;;;-1.09;100.00;99921.50;1745196;81;20911;-73
2020/12/15 05:10:51;;;;;;;62.78;27.17;;;;;;;-1.08;100.00;99922.31;1819626;78;21256;-73
2020/12/15 05:13:26;;;;;;;62.03;28.95;;;;;;;-1.08;100.00;99924.95;1749445;82;21210;-73
2020/12/15 05:15:57;;;;;;;62.88;28.45;;;;;;;-1.07;100.00;99928.44;1787648;78;21042;-74
2020/12/15 05:18:42;;;;;;;69.35;29.07;;;;;;;-1.09;100.00;99937.81;1750095;82;21070;-73
2020/12/15 05:21:15;;;;;;;62.45;27.50;;;;;;;-1.07;100.00;99941.11;1819647;78;21002;-72
2020/12/15 05:26:25;;;;;;;64.87;31.75;;;;;;;-1.05;100.00;99933.02;1852255;77;22682;-73
2020/12/15 05:29:06;;;;;;;61.58;29.63;;;;;;;-1.08;100.00;99938.13;1819706;78;20872;-73
2020/12/15 05:31:46;;;;;;;64.97;28.02;;;;;;;-1.05;100.00;99938.28;1822137;77;28687;-72
2020/12/15 05:34:30;;;;;;;68.83;29.70;;;;;;;-1.07;100.00;99939.79;1784829;80;21156;-72
2020/12/15 05:37:16;;;;;;;68.50;30.57;;;;;;;-1.06;100.00;99943.23;1786692;80;22071;-73
2020/12/15 05:40:04;;;;;;;66.42;29.45;;;;;;;-1.06;100.00;99941.42;1734205;80;20990;-73
2020/12/15 05:42:42;;;;;;;68.10;29.72;;;;;;;-1.01;100.00;99941.73;1853428;77;28781;-74
2020/12/15 05:45:16;;;;;;;64.35;28.87;;;;;;;-1.05;100.00;99954.09;1819879;78;20924;-73
2020/12/15 05:47:48;;;;;;;66.28;28.65;;;;;;;-1.05;100.00;99954.09;1819927;78;21601;-73
2020/12/15 05:50:25;;;;;;;54.27;25.08;;;;;;;-1.05;100.00;99953.63;1782620;78;21545;-73
2020/12/15 05:53:06;;;;;;;56.77;28.47;;;;;;;-1.05;100.00;99961.99;1749999;81;21586;-73
2020/12/15 05:55:42;;;;;;;65.08;28.87;;;;;;;-1.06;100.00;99960.36;1816214;78;21447;-74
2020/12/15 05:58:17;;;;;;;64.50;30.57;;;;;;;-1.07;100.00;99962.19;1818644;78;21003;-73
2020/12/15 06:00:55;;;;;;;71.72;33.35;;;;;;;-1.07;100.00;99964.81;1746232;81;21928;-75
2020/12/15 06:03:30;;;;;;;66.25;31.70;;;;;;;-1.06;100.00;99970.40;1777011;78;22096;-73
2020/12/15 07:24:18;;;;;;;;;;;;;;;;;;;;;
2020/12/15 07:27:08;;;;;;;81.60;31.17;;;;;;;-0.67;100.00;100039.50;1722679;80;21577;-75
2020/12/15 08:13:51;;;;;;;57.93;25.25;;;;;;;-0.22;100.00;100053.37;1746974;79;21929;-75
2020/12/15 08:17:34;;;;;;;;;;;;;;;;;;;;;
2020/12/15 08:31:59;;;;;;;;;;;;;;;;;;;;;
2020/12/15 08:34:46;;;;;;;58.80;27.48;;;;;;;-0.16;100.00;100072.14;1796364;78;20975;-73
2020/12/15 08:37:34;;;;;;;;;;;;;;;;;;;;;
2020/12/15 08:40:13;;;;;;;54.55;27.07;;;;;;;-0.27;100.00;100077.28;1740815;80;21098;-75
2020/12/15 08:46:01;;;;;;;56.60;25.00;;;;;;;-0.28;100.00;100075.14;1831246;78;27506;-74
2020/12/15 08:49:08;;;;;;;;;;;;;;;;;;;;;
2020/12/15 08:52:26;;;;;;;;;;;;;;;;;;;;;
2020/12/15 08:55:36;;;;;;;42.38;21.33;;;;;;;-0.25;100.00;100066.88;1807593;77;24003;-74
2020/12/15 09:01:33;;;;;;;48.30;21.82;;;;;;;-0.16;100.00;100069.00;1820221;77;24010;-75
2020/12/15 09:04:46;;;;;;;43.45;22.20;;;;;;;-0.19;100.00;100062.75;1773112;80;21391;-75
2020/12/15 09:07:20;;;;;;;47.73;23.83;;;;;;;-0.19;100.00;100063.26;1788925;79;21404;-73
2020/12/15 09:22:21;;;;;;;;;;;;;;;;;;;;;
2020/12/15 09:35:17;;;;;;;43.52;21.68;;;;;;;-0.13;100.00;100077.88;1867441;75;23159;-73
2020/12/15 09:38:15;;;;;;;47.93;22.30;;;;;;;-0.22;100.00;100074.98;1821105;78;20927;-73
2020/12/15 09:44:56;;;;;;;44.67;23.05;;;;;;;-0.18;100.00;100077.58;1789569;78;21176;-74
2020/12/15 09:47:31;;;;;;;48.17;24.63;;;;;;;-0.17;100.00;100083.20;1805501;78;21027;-73
2020/12/15 09:50:06;;;;;;;41.28;21.90;;;;;;;-0.11;100.00;100085.64;1818054;78;21027;-73
2020/12/15 09:53:07;;;;;;;63.52;29.50;;;;;;;-0.10;100.00;100080.20;1778340;77;25086;-74
2020/12/15 09:55:47;;;;;;;65.22;35.43;;;;;;;-0.12;100.00;100083.51;1781199;78;21523;-74
2020/12/15 10:12:44;;;;;;;52.33;24.85;;;;;;;-0.04;100.00;100078.69;1710123;82;21050;-73
2020/12/15 10:15:26;;;;;;;50.33;23.95;;;;;;;-0.05;100.00;100079.19;1719334;83;21414;-73
2020/12/15 10:17:59;;;;;;;46.05;23.38;;;;;;;-0.04;100.00;100077.37;1717574;81;21868;-72
2020/12/15 10:23:48;;;;;;;57.85;32.48;;;;;;;-0.02;100.00;100068.28;1819789;77;28595;-73
2020/12/15 10:26:37;;;;;;;44.03;23.75;;;;;;;0.02;100.00;100071.39;1789907;78;21483;-75
2020/12/15 10:29:13;;;;;;;39.00;21.55;;;;;;;0.03;100.00;100070.41;1809808;78;21210;-73
2020/12/15 10:31:41;;;;;;;50.12;22.90;;;;;;;0.07;100.00;100069.05;1809048;78;21252;-72
2020/12/15 10:34:25;;;;;;;51.25;25.48;;;;;;;0.18;100.00;100063.39;1846881;77;22665;-72
2020/12/15 10:36:56;;;;;;;45.90;23.70;;;;;;;0.21;100.00;100065.67;1810740;78;21671;-73
2020/12/15 10:39:30;;;;;;;46.42;24.98;;;;;;;0.21;100.00;100069.64;1813768;78;22385;-73
2020/12/15 10:41:58;;;;;;;54.73;25.30;;;;;;;0.23;100.00;100062.88;1818774;78;21085;-75
2020/12/15 10:44:31;;;;;;;43.30;22.52;;;;;;;0.14;100.00;100063.41;1746319;82;21011;-73
2020/12/15 10:47:00;;;;;;;51.20;24.20;;;;;;;0.14;100.00;100067.87;1783463;78;21048;-75
2020/12/15 10:49:29;;;;;;;49.48;23.47;;;;;;;0.14;100.00;100070.51;1780554;80;21622;-74
2020/12/15 10:52:13;;;;;;;43.92;22.17;;;;;;;0.08;100.00;100065.43;1784842;80;22350;-73
2020/12/15 10:54:46;;;;;;;50.75;24.43;;;;;;;0.02;100.00;100067.42;1783629;80;20987;-75
2020/12/15 10:57:18;;;;;;;58.75;25.92;;;;;;;0.02;100.00;100066.11;1777098;80;21605;-74
2020/12/15 10:59:50;;;;;;;44.67;22.07;;;;;;;0.04;100.00;100065.95;1785919;80;21181;-75
2020/12/15 11:02:28;;;;;;;43.92;22.52;;;;;;;0.04;100.00;100068.58;1780829;80;21076;-74
2020/12/15 11:04:58;;;;;;;47.58;24.27;;;;;;;0.03;100.00;100073.55;1785577;80;22260;-72
2020/12/15 11:07:28;;;;;;;37.45;21.65;;;;;;;0.05;100.00;100069.75;1784549;80;21689;-73
2020/12/15 11:09:57;;;;;;;52.50;25.02;;;;;;;0.15;100.00;100070.85;1786217;80;21048;-74
2020/12/15 11:12:25;;;;;;;47.70;23.73;;;;;;;0.21;100.00;100067.50;1785177;80;21186;-72
2020/12/15 11:14:55;;;;;;;46.92;23.83;;;;;;;0.23;100.00;100070.80;1786205;80;21064;-74
2020/12/15 11:17:31;;;;;;;42.27;24.65;;;;;;;0.18;100.00;100064.71;1769246;78;21483;-72
2020/12/15 11:24:24;;;;;;;102.97;45.00;;;;;;;0.25;100.00;100066.67;1831741;77;22847;-72
2020/12/15 11:26:55;;;;;;;68.00;30.82;;;;;;;0.27;100.00;100070.78;1787732;79;21965;-73
2020/12/15 11:29:25;;;;;;;274.45;93.55;;;;;;;0.29;100.00;100063.48;1789159;79;25053;-73
2020/12/15 11:34:54;;;;;;;71.57;35.63;;;;;;;0.34;100.00;100078.81;1805015;79;21644;-73
2020/12/15 11:37:24;;;;;;;58.35;29.00;;;;;;;0.30;100.00;100074.89;1805332;79;28879;-72
2020/12/15 11:39:53;;;;;;;45.17;23.45;;;;;;;0.33;100.00;100082.45;1808905;79;21011;-71
2020/12/15 11:42:29;;;;;;;40.23;21.37;;;;;;;0.33;100.00;100076.67;1808275;79;22174;-72
2020/12/15 11:44:57;;;;;;;48.13;25.90;;;;;;;0.29;100.00;100079.83;1806627;79;21494;-72
2020/12/15 11:47:25;;;;;;;43.55;24.85;;;;;;;0.30;100.00;100085.45;1804946;78;20904;-73
2020/12/15 11:50:02;;;;;;;47.80;25.50;;;;;;;0.35;100.00;100083.92;1809334;79;20987;-72
2020/12/15 11:52:31;;;;;;;40.48;21.62;;;;;;;0.35;100.00;100087.89;1811436;79;21136;-73
2020/12/15 14:21:19;;;;;;;59.90;31.02;;;;;;;-0.14;100.00;100159.88;1663400;85;21276;-74
2020/12/15 14:24:45;;;;;;;48.25;26.05;;;;;;;-0.16;100.00;100164.50;1661419;85;21494;-73
2020/12/15 14:27:20;;;;;;;50.00;26.17;;;;;;;-0.18;100.00;100171.75;1661547;85;21233;-74
2020/12/15 16:03:51;;;;;;;;;;;;;;;;;;;;;
2020/12/15 16:06:42;;;;;;;48.68;25.60;;;;;;;-0.41;100.00;100183.52;1668397;85;21164;-74
2020/12/15 16:09:15;;;;;;;58.30;24.65;;;;;;;-0.44;100.00;100181.53;1655597;85;21602;-75
2020/12/15 16:11:58;;;;;;;57.60;27.45;;;;;;;-0.41;100.00;100185.65;1566291;89;21675;-73
2020/12/15 16:14:42;;;;;;;66.70;31.42;;;;;;;-0.39;100.00;100188.95;1575110;90;21169;-73
2020/12/15 16:17:23;;;;;;;51.05;26.50;;;;;;;-0.37;100.00;100196.67;1575309;90;21228;-73
2020/12/15 16:19:54;;;;;;;125.75;56.88;;;;;;;-0.37;100.00;100196.67;1576632;90;21150;-74
2020/12/15 16:22:52;;;;;;;132.47;73.33;;;;;;;-0.36;100.00;100194.38;1548101;90;21263;-73
2020/12/15 16:25:28;;;;;;;102.07;53.65;;;;;;;-0.33;100.00;100192.22;1574837;90;21233;-73
2020/12/15 17:20:08;;;;;;;;;;;;;;;;;;;;;
2020/12/15 17:37:43;;;;;;;215.45;109.83;;;;;;;-0.33;100.00;100217.78;1710924;80;21234;-73
2020/12/15 17:40:32;;;;;;;170.65;85.10;;;;;;;-0.28;100.00;100213.64;1838987;77;22694;-75
2020/12/15 17:43:30;;;;;;;131.70;66.55;;;;;;;-0.33;100.00;100222.56;1815190;79;21019;-75
2020/12/15 17:56:48;;;;;;;118.25;60.00;;;;;;;-0.33;100.00;100232.29;1736431;80;28229;-75
2020/12/15 17:59:21;;;;;;;139.85;64.92;;;;;;;-0.32;100.00;100237.88;1753662;81;21034;-74
2020/12/15 18:14:23;;;;;;;83.85;41.23;;;;;;;-0.39;100.00;100239.53;1719415;81;21518;-76
2020/12/15 18:28:05;;;;;;;60.23;31.70;;;;;;;-0.46;100.00;100238.89;1847948;77;22658;-73
2020/12/15 18:30:33;;;;;;;49.73;24.30;;;;;;;-0.48;100.00;100241.36;1808579;78;21070;-73
2020/12/15 18:56:49;;;;;;;74.58;31.68;;;;;;;-0.50;100.00;100246.80;1730829;81;21495;-74
2020/12/15 19:03:25;;;;;;;69.50;34.27;;;;;;;-0.47;100.00;100245.14;1684381;83;21232;-73
2020/12/15 19:06:07;;;;;;;95.15;35.30;;;;;;;-0.49;100.00;100248.46;1688210;83;21099;-74
2020/12/15 19:08:38;;;;;;;87.27;33.13;;;;;;;-0.51;100.00;100250.43;1687769;83;22196;-73
2020/12/15 19:11:59;;;;;;;74.60;29.70;;;;;;;-0.44;100.00;100246.65;1845779;76;26081;-74
2020/12/15 19:16:00;;;;;;;54.40;25.20;;;;;;;-0.49;100.00;100242.34;1750958;79;21778;-76
2020/12/15 19:18:51;;;;;;;53.63;25.20;;;;;;;-0.49;100.00;100248.92;1751050;79;21553;-74
2020/12/15 19:21:38;;;;;;;57.33;28.17;;;;;;;-0.49;100.00;100248.92;1757579;80;21220;-74
2020/12/15 19:24:55;;;;;;;50.12;26.50;;;;;;;-0.47;100.00;100256.19;1680281;82;21568;-74
2020/12/15 19:38:14;;;;;;;29.87;15.88;;;;;;;-0.47;100.00;100258.83;1767228;79;28389;-72
2020/12/15 19:44:20;;;;;;;35.83;20.30;;;;;;;-0.53;100.00;100258.18;1669137;83;22084;-73
2020/12/15 19:57:54;;;;;;;50.80;23.98;;;;;;;-0.47;100.00;100269.38;1647733;85;21094;-74
2020/12/15 20:00:39;;;;;;;36.03;20.72;;;;;;;-0.48;100.00;100266.42;1652405;85;21385;-76
2020/12/15 20:03:07;;;;;;;34.10;18.80;;;;;;;-0.49;100.00;100264.28;1652747;85;21490;-75
2020/12/15 20:31:43;;;;;;;42.95;20.45;;;;;;;-0.46;100.00;100278.45;1746637;78;22154;-74
2020/12/15 20:34:19;;;;;;;31.65;16.87;;;;;;;-0.54;100.00;100285.05;1706857;82;21260;-74
2020/12/15 20:36:49;;;;;;;39.00;19.90;;;;;;;-0.57;100.00;100285.36;1728834;79;21596;-74
2020/12/15 20:39:18;;;;;;;35.95;19.48;;;;;;;-0.57;100.00;100293.77;1721808;83;21022;-74
2020/12/15 20:41:47;;;;;;;34.90;19.42;;;;;;;-0.57;100.00;100287.17;1719469;83;21023;-73
2020/12/15 20:44:42;;;;;;;37.05;19.70;;;;;;;-0.56;100.00;100298.89;1714482;81;27863;-74
2020/12/15 20:47:27;;;;;;;33.28;18.87;;;;;;;-0.53;100.00;100291.14;1618387;86;21578;-75
2020/12/15 20:49:56;;;;;;;36.85;18.90;;;;;;;-0.52;100.00;100301.52;1614937;87;22255;-74
2020/12/15 20:52:26;;;;;;;33.42;18.80;;;;;;;-0.50;100.00;100300.04;1581570;89;21906;-72
2020/12/15 20:55:08;;;;;;;36.58;20.08;;;;;;;-0.49;100.00;100295.08;1613606;87;21480;-73
2020/12/15 20:57:36;;;;;;;39.92;19.35;;;;;;;-0.50;100.00;100303.49;1617991;86;21508;-75
2020/12/15 21:01:08;;;;;;;30.88;16.95;;;;;;;-0.54;100.00;100299.55;1592684;87;22165;-74
2020/12/15 21:05:21;;;;;;;42.60;20.45;;;;;;;-0.51;100.00;100300.54;1822626;76;23971;-74
2020/12/15 21:07:51;;;;;;;41.08;21.68;;;;;;;-0.54;100.00;100307.47;1788454;77;21168;-73
2020/12/15 21:10:30;;;;;;;52.00;26.30;;;;;;;-0.52;100.00;100304.65;1746428;80;22359;-74
2020/12/15 21:13:27;;;;;;;83.30;36.15;;;;;;;-0.51;100.00;100303.17;1761980;79;21614;-75
2020/12/15 21:16:15;;;;;;;67.47;33.30;;;;;;;-0.49;100.00;100302.99;1638750;84;21225;-73
2020/12/15 21:18:49;;;;;;;120.45;54.08;;;;;;;-0.51;100.00;100303.67;1631590;84;21312;-74
2020/12/15 21:21:34;;;;;;;168.47;66.15;;;;;;;-0.50;100.00;100302.67;1620578;84;21222;-73
2020/12/15 21:24:13;;;;;;;153.30;65.17;;;;;;;-0.52;100.00;100302.83;1616695;86;21237;-74
2020/12/15 21:27:16;;;;;;;185.43;65.47;;;;;;;-0.49;100.00;100302.99;1784794;78;23451;-73
2020/12/15 21:30:04;;;;;;;179.25;72.10;;;;;;;-0.52;100.00;100308.60;1770397;78;21010;-73
2020/12/15 21:32:33;;;;;;;188.52;67.87;;;;;;;-0.51;100.00;100309.77;1786986;78;22242;-74
2020/12/15 21:35:19;;;;;;;128.57;52.90;;;;;;;-0.49;100.00;100318.81;1794312;78;21073;-73
2020/12/15 21:37:51;;;;;;;118.70;50.25;;;;;;;-0.48;100.00;100313.39;1796491;78;20913;-73
2020/12/15 21:40:21;;;;;;;157.78;59.90;;;;;;;-0.47;100.00;100316.34;1790608;80;20932;-73
2020/12/15 21:42:51;;;;;;;161.57;59.70;;;;;;;-0.46;100.00;100310.60;1784477;80;20941;-73
2020/12/15 21:45:20;;;;;;;;;;;;;;;-0.46;100.00;100304.83;1793305;80;21140;-73
2020/12/15 21:47:54;;;;;;;123.55;50.98;;;;;;;-0.48;100.00;100309.44;1760370;80;20160;-73
2020/12/15 21:50:23;;;;;;;155.03;56.75;;;;;;;-0.50;100.00;100313.23;1790517;80;20996;-74
2020/12/15 21:52:51;;;;;;;141.73;49.90;;;;;;;-0.49;100.00;100304.31;1790705;80;20881;-74
2020/12/15 21:55:19;;;;;;;89.15;41.13;;;;;;;-0.48;100.00;100309.94;1789763;80;21151;-74
2020/12/15 21:57:48;;;;;;;100.92;43.17;;;;;;;-0.47;100.00;100304.98;1790557;80;22293;-74
2020/12/15 22:00:16;;;;;;;94.70;39.42;;;;;;;-0.49;100.00;100301.20;1790760;80;21134;-73
2020/12/15 22:02:46;;;;;;;91.37;38.88;;;;;;;-0.49;100.00;100297.72;1790820;80;20921;-74
2020/12/15 22:05:14;;;;;;;79.77;39.35;;;;;;;-0.51;100.00;100303.17;1784784;80;21158;-74
2020/12/15 22:07:45;;;;;;;85.53;34.88;;;;;;;-0.53;100.00;100301.69;1790629;80;21066;-73
2020/12/15 22:10:13;;;;;;;99.62;39.98;;;;;;;-0.55;100.00;100297.06;1790654;80;21321;-74
2020/12/15 22:12:42;;;;;;;121.20;42.75;;;;;;;-0.57;100.00;100294.59;1790675;80;20881;-74
2020/12/15 22:15:16;;;;;;;142.28;41.05;;;;;;;-0.58;100.00;100287.67;1784020;80;20937;-74
2020/12/15 22:17:48;;;;;;;109.30;45.70;;;;;;;-0.57;100.00;100283.22;1790612;80;20992;-74
2020/12/15 22:20:21;;;;;;;100.30;43.50;;;;;;;-0.57;100.00;100285.86;1790340;80;21020;-74